Time;durP1;ratioP1;P1;durP2;ratioP2;P2;SDS_P1;SDS_P2;PMS_P1;PMS_P2;Temp;Humidity;BMP_temperature;BMP_pressure;BME280_temperature;BME280_humidity;BME280_pressure;Samples;Min_cycle;Max_cycle;Signal;HPM_P1;HPM_P2
2022/03/05 00:01:57;;;;;;;9.85;4.85;;;2.30;90.30;;;;;;5079026;27;39842;-53
2022/03/05 00:04:25;;;;;;;9.57;5.05;;;2.30;90.20;;;;;;5077209;27;37256;-52
2022/03/05 00:06:53;;;;;;;9.80;5.25;;;2.30;90.10;;;;;;5079110;27;37289;-52
2022/03/05 00:09:20;;;;;;;9.77;5.40;;;2.30;90.00;;;;;;5078532;27;38281;-52
2022/03/05 00:11:49;;;;;;;8.23;4.72;;;2.20;90.00;;;;;;5079612;27;38462;-52
2022/03/05 00:14:16;;;;;;;8.43;4.85;;;2.20;90.00;;;;;;5077494;27;37344;-51
2022/03/05 00:16:44;;;;;;;8.63;4.65;;;2.20;90.20;;;;;;5078927;27;36421;-52
2022/03/05 00:19:11;;;;;;;11.70;5.53;;;2.10;90.30;;;;;;5078391;27;37363;-53
2022/03/05 00:21:40;;;;;;;10.75;5.78;;;2.10;90.60;;;;;;5078781;27;36155;-54
2022/03/05 00:24:07;;;;;;;8.48;4.55;;;2.10;90.40;;;;;;5076366;27;36160;-53
2022/03/05 00:26:35;;;;;;;7.78;4.45;;;2.20;90.50;;;;;;5077427;27;37353;-52
2022/03/05 00:29:02;;;;;;;8.73;4.88;;;2.10;90.40;;;;;;5078398;27;38960;-53
2022/03/05 00:31:30;;;;;;;11.10;5.50;;;2.10;90.30;;;;;;5076354;27;36288;-51
2022/03/05 00:33:57;;;;;;;9.25;5.05;;;2.10;90.20;;;;;;5077243;27;37646;-50
2022/03/05 00:36:25;;;;;;;9.55;4.97;;;2.20;90.20;;;;;;5078671;27;35851;-52
2022/03/05 00:38:54;;;;;;;11.73;4.88;;;2.20;90.30;;;;;;5076742;27;38815;-51
2022/03/05 00:41:21;;;;;;;10.15;4.88;;;2.10;90.30;;;;;;5078624;27;36788;-52
2022/03/05 00:43:49;;;;;;;10.70;5.50;;;2.10;90.30;;;;;;5081069;27;38525;-53
2022/03/05 00:46:16;;;;;;;12.77;6.28;;;2.10;90.40;;;;;;5082074;27;36365;-53
2022/03/05 00:48:43;;;;;;;10.70;5.47;;;2.10;90.70;;;;;;5084320;27;38173;-52
2022/03/05 00:51:11;;;;;;;9.93;5.10;;;2.10;90.50;;;;;;5081552;27;39655;-53
2022/03/05 00:53:38;;;;;;;13.20;5.45;;;2.10;90.40;;;;;;5084546;27;37448;-52
2022/03/05 00:56:07;;;;;;;8.90;4.68;;;2.10;90.30;;;;;;5083339;27;35239;-53
2022/03/05 00:58:34;;;;;;;9.13;5.30;;;2.10;90.20;;;;;;5085048;27;36462;-54
2022/03/05 01:01:02;;;;;;;10.93;5.13;;;2.10;90.10;;;;;;5084863;27;37938;-53
2022/03/05 01:03:29;;;;;;;11.43;5.80;;;2.10;90.10;;;;;;5083346;27;37492;-54
2022/03/05 01:05:57;;;;;;;11.10;5.07;;;2.00;90.10;;;;;;5085582;27;36039;-53
2022/03/05 01:08:24;;;;;;;8.70;4.82;;;2.00;90.10;;;;;;5083073;27;37069;-53
2022/03/05 01:10:51;;;;;;;10.02;5.25;;;2.10;90.00;;;;;;5082384;27;37592;-52
2022/03/05 01:13:20;;;;;;;10.52;4.80;;;2.00;90.00;;;;;;5083580;27;38580;-53
2022/03/05 01:15:48;;;;;;;10.38;5.25;;;2.00;89.90;;;;;;5085798;27;35595;-53
2022/03/05 01:18:15;;;;;;;8.70;4.78;;;2.00;89.80;;;;;;5082930;27;39521;-52
2022/03/05 01:20:42;;;;;;;9.52;5.53;;;2.00;89.80;;;;;;5083173;27;37906;-52
2022/03/05 01:23:09;;;;;;;10.10;5.40;;;2.00;89.90;;;;;;5082327;27;36155;-54
2022/03/05 01:25:37;;;;;;;11.00;5.90;;;2.00;89.80;;;;;;5084666;27;36320;-53
2022/03/05 01:28:05;;;;;;;9.77;5.32;;;2.00;89.80;;;;;;5085845;27;38512;-52
2022/03/05 01:30:34;;;;;;;10.25;5.35;;;2.00;89.80;;;;;;5082487;27;38478;-53
2022/03/05 01:33:01;;;;;;;9.18;5.18;;;1.90;89.90;;;;;;5083353;27;38248;-53
2022/03/05 01:35:28;;;;;;;12.45;5.90;;;2.00;89.80;;;;;;5084002;27;36295;-54
2022/03/05 01:37:56;;;;;;;10.85;5.65;;;2.00;89.80;;;;;;5085180;27;37382;-53
2022/03/05 01:40:23;;;;;;;12.48;5.43;;;1.70;89.70;;;;;;5083322;27;38829;-53
2022/03/05 01:42:51;;;;;;;12.70;5.95;;;1.90;90.00;;;;;;5082608;27;38367;-54
2022/03/05 01:45:18;;;;;;;11.32;6.47;;;1.80;90.00;;;;;;5082243;27;37812;-52
2022/03/05 01:47:47;;;;;;;10.13;5.47;;;1.80;90.00;;;;;;5084182;27;38396;-53
2022/03/05 01:50:14;;;;;;;12.13;5.43;;;1.80;90.00;;;;;;5081041;27;37593;-53
2022/03/05 01:52:42;;;;;;;10.13;5.70;;;1.80;90.00;;;;;;5084400;27;37615;-54
2022/03/05 01:55:10;;;;;;;11.00;5.85;;;1.80;90.00;;;;;;5082861;27;36622;-53
2022/03/05 01:57:37;;;;;;;10.60;5.72;;;1.80;89.90;;;;;;5081466;27;38382;-51
2022/03/05 02:00:09;;;;;;;11.82;5.47;;;1.80;89.80;;;;;;5083197;27;37413;-54
2022/03/05 02:02:36;;;;;;;12.05;5.80;;;1.80;89.80;;;;;;5083511;27;35975;-52
2022/03/05 02:05:05;;;;;;;10.18;5.43;;;1.80;89.80;;;;;;5081891;27;37652;-52
2022/03/05 02:07:33;;;;;;;10.32;5.72;;;1.80;89.80;;;;;;5082308;27;39784;-52
2022/03/05 02:10:00;;;;;;;12.40;5.68;;;1.80;89.80;;;;;;5083340;27;39280;-53
2022/03/05 02:12:29;;;;;;;12.07;6.25;;;1.80;89.60;;;;;;5082745;27;36348;-53
2022/03/05 02:14:56;;;;;;;12.10;6.13;;;1.80;89.60;;;;;;5081803;27;36390;-54
2022/03/05 02:17:24;;;;;;;12.20;6.32;;;1.80;89.60;;;;;;5080690;27;37030;-52
2022/03/05 02:19:51;;;;;;;11.80;5.95;;;1.80;89.50;;;;;;5083991;27;38523;-53
2022/03/05 02:22:20;;;;;;;11.30;5.85;;;1.80;89.40;;;;;;5083272;27;36227;-53
2022/03/05 02:24:48;;;;;;;11.07;6.13;;;1.80;89.30;;;;;;5082278;27;36397;-53
2022/03/05 02:27:16;;;;;;;11.43;6.15;;;1.80;89.40;;;;;;5083350;27;37692;-52
2022/03/05 02:29:43;;;;;;;11.57;5.90;;;1.80;89.40;;;;;;5084591;27;40264;-54
2022/03/05 02:32:11;;;;;;;10.25;5.70;;;1.80;89.40;;;;;;5082500;27;37182;-53
2022/03/05 02:34:39;;;;;;;10.85;5.63;;;1.80;89.30;;;;;;5082844;27;37294;-54
2022/03/05 02:37:09;;;;;;;11.10;6.45;;;1.70;89.20;;;;;;5083002;27;39520;-53
2022/03/05 02:39:38;;;;;;;10.60;5.93;;;1.70;89.30;;;;;;5083407;27;37037;-53
2022/03/05 02:42:06;;;;;;;10.40;5.57;;;1.70;89.30;;;;;;5083380;27;37239;-53
2022/03/05 02:44:34;;;;;;;11.40;5.70;;;1.60;89.40;;;;;;5080508;27;36416;-54
2022/03/05 02:47:01;;;;;;;12.25;5.60;;;1.60;89.60;;;;;;5086153;27;37596;-53
2022/03/05 02:49:28;;;;;;;11.18;5.50;;;1.60;89.60;;;;;;5082015;27;36454;-53
2022/03/05 02:51:56;;;;;;;10.90;5.45;;;1.60;89.50;;;;;;5082039;27;37398;-52
2022/03/05 02:54:23;;;;;;;10.68;5.35;;;1.60;89.40;;;;;;5083214;27;36749;-53
2022/03/05 02:56:52;;;;;;;11.55;5.65;;;1.70;89.40;;;;;;5082135;27;39201;-54
2022/03/05 02:59:19;;;;;;;9.98;5.65;;;1.70;89.30;;;;;;5083158;27;35745;-52
2022/03/05 03:01:47;;;;;;;9.73;5.25;;;1.60;89.10;;;;;;5083502;27;37475;-53
2022/03/05 03:04:14;;;;;;;11.63;5.57;;;1.60;89.20;;;;;;5081506;27;37427;-52
2022/03/05 03:06:41;;;;;;;9.82;5.00;;;1.60;89.20;;;;;;5082666;27;37480;-53
2022/03/05 03:09:09;;;;;;;11.02;5.75;;;1.60;89.10;;;;;;5084136;27;38802;-52
2022/03/05 03:11:36;;;;;;;13.35;5.82;;;1.60;89.20;;;;;;5081102;27;38488;-53
2022/03/05 03:14:05;;;;;;;10.32;5.43;;;1.60;89.20;;;;;;5082822;27;35981;-53
2022/03/05 03:16:32;;;;;;;10.00;4.95;;;1.50;89.20;;;;;;5084600;27;37674;-53
2022/03/05 03:18:59;;;;;;;11.32;5.40;;;1.50;89.60;;;;;;5080754;27;37556;-53
2022/03/05 03:21:27;;;;;;;10.65;5.05;;;1.50;89.70;;;;;;5083829;27;36113;-52
2022/03/05 03:23:54;;;;;;;12.02;6.03;;;1.50;89.50;;;;;;5081540;27;37732;-52
2022/03/05 03:26:21;;;;;;;10.60;5.50;;;1.50;89.00;;;;;;5082389;27;37608;-51
2022/03/05 03:28:49;;;;;;;10.43;5.35;;;1.60;88.80;;;;;;5082602;27;38088;-52
2022/03/05 03:31:17;;;;;;;11.90;5.93;;;1.60;88.80;;;;;;5080068;27;37832;-53
2022/03/05 03:33:45;;;;;;;12.05;5.40;;;1.50;88.60;;;;;;5084396;27;36883;-54
2022/03/05 03:36:12;;;;;;;13.27;5.35;;;1.50;88.60;;;;;;5080613;27;37735;-53
2022/03/05 03:38:40;;;;;;;11.25;5.60;;;1.50;88.40;;;;;;5078740;27;36747;-52
2022/03/05 03:41:07;;;;;;;10.13;5.18;;;1.50;88.30;;;;;;5080000;27;37893;-52
2022/03/05 03:43:35;;;;;;;13.80;6.03;;;1.50;88.20;;;;;;5081228;27;36478;-52
2022/03/05 03:46:02;;;;;;;9.88;5.38;;;1.50;88.10;;;;;;5079969;27;37658;-52
2022/03/05 03:48:31;;;;;;;9.43;4.95;;;1.50;88.10;;;;;;5081266;27;37804;-52
2022/03/05 03:50:58;;;;;;;10.50;5.53;;;1.50;88.10;;;;;;5081587;27;38369;-52
2022/03/05 03:53:26;;;;;;;14.93;6.80;;;1.40;88.10;;;;;;5082191;27;38392;-50
2022/03/05 03:55:53;;;;;;;11.43;5.28;;;1.50;88.00;;;;;;5081599;27;36318;-52
2022/03/05 03:58:21;;;;;;;11.50;6.00;;;1.50;88.00;;;;;;5080409;27;38458;-52
2022/03/05 04:00:48;;;;;;;13.88;6.53;;;1.50;88.00;;;;;;5083321;27;39024;-52
2022/03/05 04:03:15;;;;;;;12.35;6.28;;;1.40;88.10;;;;;;5080888;27;36923;-53
2022/03/05 04:05:44;;;;;;;8.88;5.07;;;1.30;88.40;;;;;;5081068;27;37947;-53
2022/03/05 04:10:56;;;;;;;10.07;5.28;;;1.20;89.30;;;;;;5082176;27;37494;-52
2022/03/05 04:13:23;;;;;;;10.20;5.85;;;1.20;89.40;;;;;;5081734;27;36482;-53
2022/03/05 04:15:51;;;;;;;11.18;6.85;;;1.20;89.80;;;;;;5080429;27;38857;-53
2022/03/05 04:18:18;;;;;;;7.88;4.65;;;1.10;90.00;;;;;;5079007;27;37819;-53
2022/03/05 04:20:47;;;;;;;11.38;5.75;;;1.10;90.20;;;;;;5082407;27;37296;-53
2022/03/05 04:23:14;;;;;;;11.27;5.53;;;1.10;90.40;;;;;;5080685;27;36750;-53
2022/03/05 04:25:41;;;;;;;10.75;5.53;;;1.10;90.60;;;;;;5080141;27;37306;-54
2022/03/05 04:28:09;;;;;;;10.23;5.30;;;1.10;90.30;;;;;;5080271;27;37208;-53
2022/03/05 04:30:36;;;;;;;10.15;5.25;;;1.10;90.30;;;;;;5080354;27;38318;-54
2022/03/05 04:33:03;;;;;;;11.10;5.72;;;1.10;90.20;;;;;;5082647;27;35281;-51
2022/03/05 04:35:31;;;;;;;11.65;6.03;;;1.10;90.30;;;;;;5081326;27;37613;-51
2022/03/05 04:38:00;;;;;;;11.43;5.82;;;1.00;90.30;;;;;;5079980;27;37817;-53
2022/03/05 04:40:27;;;;;;;10.15;5.22;;;1.00;90.40;;;;;;5082233;27;37235;-53
2022/03/05 04:42:54;;;;;;;10.68;5.45;;;1.10;90.40;;;;;;5082087;27;35304;-53
2022/03/05 04:45:21;;;;;;;10.13;5.90;;;1.10;90.20;;;;;;5078617;27;37665;-54
2022/03/05 04:47:49;;;;;;;10.30;5.53;;;1.10;90.10;;;;;;5081380;27;37822;-51
2022/03/05 04:50:16;;;;;;;9.43;4.88;;;1.10;90.00;;;;;;5081061;27;37362;-54
2022/03/05 04:52:44;;;;;;;9.50;4.93;;;1.20;89.90;;;;;;5080868;27;36283;-53
2022/03/05 04:55:12;;;;;;;9.15;5.13;;;1.20;89.70;;;;;;5080846;27;37521;-53
2022/03/05 04:57:40;;;;;;;13.48;6.00;;;1.20;89.70;;;;;;5079088;27;39044;-53
2022/03/05 05:00:09;;;;;;;12.95;5.70;;;1.10;90.00;;;;;;5083575;27;36204;-53
2022/03/05 05:02:37;;;;;;;11.52;5.03;;;1.20;90.00;;;;;;5080899;27;36938;-51
2022/03/05 05:05:05;;;;;;;9.18;5.18;;;1.20;89.90;;;;;;5078133;27;39084;-53
2022/03/05 05:07:33;;;;;;;10.73;5.15;;;1.20;90.10;;;;;;5079933;27;37561;-51
2022/03/05 05:10:00;;;;;;;8.35;4.43;;;1.20;90.00;;;;;;5079517;27;38809;-51
2022/03/05 05:12:29;;;;;;;10.25;5.07;;;1.20;89.90;;;;;;5081392;27;37565;-52
2022/03/05 05:14:56;;;;;;;9.43;4.82;;;1.20;89.80;;;;;;5081066;27;37830;-52
2022/03/05 05:17:23;;;;;;;11.05;5.13;;;1.20;89.80;;;;;;5078795;27;36386;-53
2022/03/05 05:19:51;;;;;;;9.45;4.63;;;1.00;90.30;;;;;;5081230;27;38619;-52
2022/03/05 05:22:18;;;;;;;9.18;4.82;;;1.00;90.50;;;;;;5082419;27;36544;-53
2022/03/05 05:24:45;;;;;;;11.70;5.15;;;0.90;90.90;;;;;;5079829;27;37565;-51
2022/03/05 05:27:12;;;;;;;9.60;4.57;;;0.80;91.10;;;;;;5081910;27;38696;-53
2022/03/05 05:29:41;;;;;;;9.38;5.03;;;0.70;91.30;;;;;;5080891;27;36050;-53
2022/03/05 05:32:10;;;;;;;12.25;5.18;;;0.60;91.50;;;;;;5084649;27;36452;-52
2022/03/05 05:34:37;;;;;;;11.32;5.82;;;0.60;91.70;;;;;;5084154;27;36481;-52
2022/03/05 05:37:05;;;;;;;9.63;4.63;;;0.50;91.90;;;;;;5083048;27;37327;-52
2022/03/05 05:39:32;;;;;;;10.25;5.10;;;0.40;92.00;;;;;;5083924;27;37848;-53
2022/03/05 05:42:00;;;;;;;9.90;5.00;;;0.40;92.20;;;;;;5085998;27;37647;-53
2022/03/05 05:44:27;;;;;;;10.93;5.82;;;0.40;92.20;;;;;;5082267;27;37490;-52
2022/03/05 05:46:56;;;;;;;9.90;5.57;;;0.40;92.30;;;;;;5084995;27;39616;-51
2022/03/05 05:49:23;;;;;;;9.68;4.53;;;0.30;92.30;;;;;;5083389;27;38522;-51
2022/03/05 05:51:50;;;;;;;11.68;5.32;;;0.40;92.20;;;;;;5082871;27;35282;-52
2022/03/05 05:54:18;;;;;;;11.02;5.20;;;0.40;92.00;;;;;;5084913;27;39260;-53
2022/03/05 05:56:45;;;;;;;10.38;4.70;;;0.40;92.00;;;;;;5084284;27;37759;-53
2022/03/05 05:59:12;;;;;;;9.60;5.45;;;0.30;92.20;;;;;;5082918;27;37589;-54
2022/03/05 06:01:39;;;;;;;9.48;4.95;;;0.20;92.30;;;;;;5082998;27;36413;-51
2022/03/05 06:04:08;;;;;;;9.10;4.85;;;0.10;92.60;;;;;;5083192;27;37347;-52
2022/03/05 06:06:36;;;;;;;11.95;4.88;;;0.10;92.50;;;;;;5084305;27;37622;-52
2022/03/05 06:09:03;;;;;;;10.38;4.93;;;0.20;92.60;;;;;;5084425;27;36027;-52
2022/03/05 06:11:30;;;;;;;8.98;4.18;;;0.20;92.40;;;;;;5081828;27;36384;-53
2022/03/05 06:13:58;;;;;;;10.48;5.00;;;0.30;92.60;;;;;;5083314;27;37574;-53
2022/03/05 06:16:25;;;;;;;10.55;5.07;;;0.30;92.60;;;;;;5082007;27;37536;-53
2022/03/05 06:18:53;;;;;;;11.13;4.65;;;0.30;92.50;;;;;;5082627;27;38162;-53
2022/03/05 06:21:21;;;;;;;10.65;5.25;;;0.30;92.60;;;;;;5083646;27;35323;-53
2022/03/05 06:23:48;;;;;;;11.93;5.25;;;0.40;92.50;;;;;;5084387;27;37483;-52
2022/03/05 06:26:16;;;;;;;11.63;4.95;;;0.60;92.30;;;;;;5084153;27;36865;-53
2022/03/05 06:28:43;;;;;;;11.85;5.00;;;0.80;92.10;;;;;;5083217;27;37408;-53
2022/03/05 06:31:11;;;;;;;10.82;5.35;;;0.90;92.00;;;;;;5079883;27;37017;-53
2022/03/05 06:33:38;;;;;;;10.25;4.85;;;1.00;91.70;;;;;;5084622;27;36699;-53
2022/03/05 06:36:06;;;;;;;9.68;4.72;;;1.10;91.40;;;;;;5082126;27;38214;-52
2022/03/05 06:38:35;;;;;;;10.13;5.03;;;1.20;91.10;;;;;;5081570;27;38448;-53
2022/03/05 06:41:02;;;;;;;11.65;6.03;;;1.30;90.90;;;;;;5082802;27;37813;-52
2022/03/05 06:43:29;;;;;;;10.25;4.85;;;1.30;90.70;;;;;;5082256;27;36173;-53
2022/03/05 06:45:57;;;;;;;10.25;5.00;;;1.40;90.60;;;;;;5083401;27;37626;-52
2022/03/05 06:48:24;;;;;;;9.55;4.78;;;1.50;90.40;;;;;;5081883;27;37622;-54
2022/03/05 06:50:52;;;;;;;10.77;4.93;;;1.60;90.30;;;;;;5081742;27;38106;-51
2022/03/05 06:53:19;;;;;;;9.70;4.93;;;1.70;90.10;;;;;;5083407;27;37699;-53
2022/03/05 06:55:48;;;;;;;10.32;5.05;;;1.80;90.00;;;;;;5083171;27;37409;-54
2022/03/05 06:58:17;;;;;;;9.00;4.97;;;1.90;89.20;;;;;;5081368;27;38167;-52
2022/03/05 07:00:45;;;;;;;9.60;4.70;;;2.00;88.90;;;;;;5084375;27;36166;-52
2022/03/05 07:03:12;;;;;;;10.43;5.57;;;2.20;89.30;;;;;;5082485;27;37396;-53
2022/03/05 07:05:40;;;;;;;14.45;5.00;;;2.30;88.20;;;;;;5081441;27;37220;-51
2022/03/05 07:08:07;;;;;;;13.02;5.47;;;2.50;87.30;;;;;;5082456;27;37880;-51
2022/03/05 07:10:34;;;;;;;12.60;5.55;;;2.60;86.90;;;;;;5081340;27;35326;-53
2022/03/05 07:13:04;;;;;;;9.88;4.93;;;2.60;86.40;;;;;;5081680;27;37426;-52
2022/03/05 07:15:31;;;;;;;11.35;5.82;;;2.70;86.30;;;;;;5082088;27;37570;-52
2022/03/05 07:17:59;;;;;;;10.65;5.13;;;2.90;86.10;;;;;;5081113;27;39672;-54
2022/03/05 07:20:26;;;;;;;13.75;5.43;;;3.00;85.40;;;;;;5083718;27;36755;-54
2022/03/05 07:22:53;;;;;;;10.65;5.60;;;3.10;85.10;;;;;;5083156;27;36486;-53
2022/03/05 07:25:21;;;;;;;11.45;5.90;;;3.10;84.60;;;;;;5080763;27;37530;-53
2022/03/05 07:27:48;;;;;;;11.80;5.68;;;3.20;84.10;;;;;;5081504;27;37166;-52
2022/03/05 07:30:17;;;;;;;13.30;5.75;;;3.20;84.30;;;;;;5082192;27;37339;-54
2022/03/05 07:32:44;;;;;;;9.07;5.10;;;3.10;84.50;;;;;;5082263;27;38456;-54
2022/03/05 07:35:12;;;;;;;13.23;6.20;;;3.20;84.80;;;;;;5081302;27;38683;-53
2022/03/05 07:37:39;;;;;;;10.95;5.32;;;3.30;84.50;;;;;;5079354;27;39491;-53
2022/03/05 07:40:08;;;;;;;9.90;5.18;;;3.30;84.60;;;;;;5080763;27;36358;-53
2022/03/05 07:42:35;;;;;;;12.57;5.82;;;3.30;84.10;;;;;;5081337;27;36618;-54
2022/03/05 07:45:03;;;;;;;14.52;6.45;;;3.40;83.70;;;;;;5081525;27;38270;-52
2022/03/05 07:47:32;;;;;;;11.40;6.05;;;3.40;83.80;;;;;;5081913;27;37753;-53
2022/03/05 07:50:00;;;;;;;12.20;7.00;;;3.40;83.70;;;;;;5081737;27;36536;-53
2022/03/05 07:52:27;;;;;;;11.93;6.30;;;3.50;84.10;;;;;;5079715;27;38900;-52
2022/03/05 07:54:54;;;;;;;11.73;6.15;;;3.50;84.10;;;;;;5079962;27;36420;-51
2022/03/05 07:57:21;;;;;;;12.30;6.28;;;3.60;83.80;;;;;;5077924;27;37264;-52
2022/03/05 07:59:49;;;;;;;11.90;6.28;;;3.70;83.20;;;;;;5078917;27;35476;-53
2022/03/05 08:02:16;;;;;;;15.25;7.40;;;3.70;83.30;;;;;;5080717;27;38002;-53
2022/03/05 08:04:46;;;;;;;12.40;7.05;;;3.80;83.10;;;;;;5079397;27;36861;-53
2022/03/05 08:07:13;;;;;;;15.45;7.30;;;3.80;83.10;;;;;;5080831;27;37207;-53
2022/03/05 08:09:42;;;;;;;14.27;7.32;;;3.90;83.30;;;;;;5080903;27;36939;-54
2022/03/05 08:12:10;;;;;;;12.52;7.03;;;4.10;83.20;;;;;;5079574;27;37736;-53
2022/03/05 08:14:38;;;;;;;13.57;7.50;;;4.10;83.10;;;;;;5081507;27;38122;-54
2022/03/05 08:17:05;;;;;;;13.13;6.95;;;4.20;82.90;;;;;;5078723;27;36037;-54
2022/03/05 08:19:33;;;;;;;12.82;7.53;;;4.30;82.50;;;;;;5080055;27;36234;-54
2022/03/05 08:22:02;;;;;;;13.50;6.63;;;4.60;82.50;;;;;;5079272;27;38681;-53
2022/03/05 08:24:29;;;;;;;14.95;8.45;;;4.90;81.60;;;;;;5079360;27;38702;-53
2022/03/05 08:26:56;;;;;;;12.40;7.35;;;5.30;80.40;;;;;;5080252;27;37265;-54
2022/03/05 08:29:24;;;;;;;14.27;7.30;;;5.40;79.20;;;;;;5078161;27;36037;-53
2022/03/05 08:31:51;;;;;;;14.43;7.93;;;5.70;79.10;;;;;;5080321;27;38310;-54
2022/03/05 08:34:19;;;;;;;12.65;7.30;;;5.90;78.10;;;;;;5080321;27;38613;-53
2022/03/05 08:36:47;;;;;;;13.50;8.00;;;6.10;76.90;;;;;;5079914;27;37198;-53
2022/03/05 08:39:16;;;;;;;14.65;8.48;;;6.50;74.40;;;;;;5079954;27;36153;-53
2022/03/05 08:41:43;;;;;;;14.35;8.05;;;7.10;71.80;;;;;;5078987;27;38224;-55
2022/03/05 08:44:11;;;;;;;12.57;7.40;;;7.50;69.70;;;;;;5080563;27;39011;-52
2022/03/05 08:46:39;;;;;;;13.95;7.65;;;7.60;68.20;;;;;;5071592;27;37966;-53
2022/03/05 08:49:11;;;;;;;12.98;7.38;;;7.80;67.30;;;;;;5078126;27;35779;-54
2022/03/05 08:51:44;;;;;;;14.15;7.68;;;7.90;66.30;;;;;;5097977;27;39261;-54
2022/03/05 08:54:12;;;;;;;13.32;7.60;;;8.00;65.20;;;;;;5077760;27;37608;-54
2022/03/05 08:56:41;;;;;;;13.73;8.13;;;8.10;65.20;;;;;;5074775;27;36820;-54
2022/03/05 08:59:09;;;;;;;14.27;7.63;;;8.30;64.90;;;;;;5076903;27;35231;-54
2022/03/05 09:01:36;;;;;;;13.48;7.75;;;8.40;63.40;;;;;;5075531;27;37559;-55
2022/03/05 09:04:04;;;;;;;13.55;8.35;;;8.50;62.70;;;;;;5077750;27;37736;-54
2022/03/05 09:06:31;;;;;;;13.60;8.18;;;8.70;62.00;;;;;;5078203;27;39160;-54
2022/03/05 09:08:59;;;;;;;13.77;8.32;;;9.00;60.60;;;;;;5078485;27;37049;-53
2022/03/05 09:11:27;;;;;;;13.32;7.57;;;9.20;60.30;;;;;;5079050;27;37222;-52
2022/03/05 09:13:56;;;;;;;15.85;7.95;;;9.40;59.00;;;;;;5076507;27;36553;-55
2022/03/05 09:16:23;;;;;;;11.98;7.22;;;9.50;58.90;;;;;;5078449;27;38166;-54
2022/03/05 09:18:50;;;;;;;13.18;7.82;;;9.70;59.10;;;;;;5075857;27;36702;-54
2022/03/05 09:21:18;;;;;;;13.23;8.48;;;9.70;58.50;;;;;;5078503;27;37626;-55
2022/03/05 09:23:45;;;;;;;14.75;8.30;;;9.70;59.40;;;;;;5077766;27;36501;-55
2022/03/05 09:26:14;;;;;;;17.00;8.80;;;9.70;59.30;;;;;;5073617;27;37576;-54
2022/03/05 09:28:42;;;;;;;16.63;10.25;;;9.60;59.30;;;;;;5078917;27;36747;-54
2022/03/05 09:31:12;;;;;;;14.43;8.60;;;9.50;60.00;;;;;;5080018;27;36848;-54
2022/03/05 09:33:39;;;;;;;14.60;8.63;;;9.60;59.00;;;;;;5082603;27;36600;-55
2022/03/05 09:36:06;;;;;;;15.57;9.00;;;9.60;57.60;;;;;;5084901;27;38535;-53
2022/03/05 09:38:34;;;;;;;13.45;8.85;;;9.80;56.90;;;;;;5084405;27;36613;-52
2022/03/05 09:41:03;;;;;;;14.70;9.18;;;9.90;56.20;;;;;;5081204;27;36368;-53
2022/03/05 09:43:30;;;;;;;15.27;9.93;;;10.10;56.50;;;;;;5084035;27;37814;-54
2022/03/05 09:45:58;;;;;;;14.98;9.15;;;10.20;55.90;;;;;;5081847;27;37530;-53
2022/03/05 09:48:28;;;;;;;13.82;8.80;;;10.30;55.80;;;;;;5085418;27;36614;-53
2022/03/05 09:50:56;;;;;;;15.98;9.68;;;10.30;56.00;;;;;;5085445;27;39001;-54
2022/03/05 09:53:28;;;;;;;14.38;8.93;;;10.20;56.20;;;;;;5083352;27;38254;-54
2022/03/05 09:55:55;;;;;;;15.90;9.90;;;10.20;55.80;;;;;;5082712;27;36157;-55
2022/03/05 09:58:23;;;;;;;14.73;9.65;;;10.30;55.30;;;;;;5084580;27;37524;-53
2022/03/05 10:00:51;;;;;;;15.50;9.93;;;10.10;55.40;;;;;;5080993;27;39498;-54
2022/03/05 10:03:21;;;;;;;15.60;9.73;;;10.20;54.90;;;;;;5083544;27;39223;-53
2022/03/05 10:05:50;;;;;;;14.32;9.48;;;10.10;55.70;;;;;;5082304;27;37879;-55
2022/03/05 10:08:20;;;;;;;16.77;10.40;;;10.20;55.80;;;;;;5083381;27;37016;-54
2022/03/05 10:10:50;;;;;;;17.83;9.93;;;10.20;54.30;;;;;;5083624;27;37363;-54
2022/03/05 10:13:19;;;;;;;16.25;10.18;;;10.20;54.50;;;;;;5081922;27;37263;-52
2022/03/05 10:15:47;;;;;;;16.70;10.25;;;10.30;53.80;;;;;;5082571;27;38821;-55
2022/03/05 10:18:15;;;;;;;14.50;9.15;;;10.50;53.50;;;;;;5084907;27;36478;-55
2022/03/05 10:20:50;;;;;;;17.98;9.90;;;10.60;52.30;;;;;;5083055;27;38966;-54
2022/03/05 10:23:21;;;;;;;17.02;9.50;;;10.60;51.00;;;;;;5083793;27;36538;-55
2022/03/05 10:25:50;;;;;;;16.80;10.35;;;10.90;51.40;;;;;;5082042;27;38732;-54
2022/03/05 10:28:19;;;;;;;16.08;9.45;;;11.20;51.10;;;;;;5084383;27;35473;-54
2022/03/05 10:30:48;;;;;;;15.77;9.25;;;11.60;50.70;;;;;;5084026;27;36456;-53
2022/03/05 10:33:27;;;;;;;16.05;9.45;;;11.60;48.90;;;;;;5081824;27;37624;-54
2022/03/05 10:35:55;;;;;;;19.52;10.95;;;11.50;48.90;;;;;;5084829;27;37035;-55
2022/03/05 10:38:25;;;;;;;19.00;10.80;;;11.30;48.50;;;;;;5081039;27;39467;-54
2022/03/05 10:40:56;;;;;;;17.33;10.32;;;11.20;49.50;;;;;;5080599;27;36443;-54
2022/03/05 10:43:24;;;;;;;16.35;10.02;;;11.10;49.10;;;;;;5081442;27;36542;-55
2022/03/05 10:45:55;;;;;;;15.23;9.65;;;11.00;50.00;;;;;;5081399;27;38187;-55
2022/03/05 10:48:24;;;;;;;16.08;10.73;;;11.00;50.50;;;;;;5080466;27;36676;-55
2022/03/05 10:51:02;;;;;;;18.50;10.20;;;11.00;50.40;;;;;;5082926;27;37615;-55
2022/03/05 10:53:42;;;;;;;16.55;9.90;;;10.90;51.00;;;;;;5081770;27;36238;-55
2022/03/05 10:56:33;;;;;;;18.77;10.77;;;10.80;50.60;;;;;;5082698;27;36903;-54
2022/03/05 10:59:03;;;;;;;15.90;9.35;;;10.50;50.00;;;;;;5083817;27;37159;-54
2022/03/05 11:01:31;;;;;;;17.35;10.38;;;10.50;52.20;;;;;;5080533;27;38061;-54
2022/03/05 11:03:59;;;;;;;15.93;10.07;;;10.60;53.00;;;;;;5080634;27;37588;-55
2022/03/05 11:06:28;;;;;;;14.35;9.27;;;10.60;52.20;;;;;;5077006;27;37068;-55
2022/03/05 11:08:58;;;;;;;16.85;10.18;;;10.60;52.10;;;;;;5080214;27;37721;-54
2022/03/05 11:11:26;;;;;;;20.08;11.77;;;10.80;52.30;;;;;;5078439;27;36590;-54
2022/03/05 11:13:53;;;;;;;18.27;10.52;;;10.90;50.60;;;;;;5078111;27;39832;-54
2022/03/05 11:16:21;;;;;;;15.73;10.05;;;10.90;50.30;;;;;;5078248;27;37163;-55
2022/03/05 11:18:49;;;;;;;18.08;10.45;;;11.00;49.80;;;;;;5077460;27;36960;-54
2022/03/05 11:21:16;;;;;;;16.70;10.18;;;11.00;50.50;;;;;;5078163;27;38965;-53
2022/03/05 11:23:46;;;;;;;16.63;10.48;;;11.00;49.70;;;;;;5079950;27;37770;-55
2022/03/05 11:26:17;;;;;;;18.00;10.98;;;11.20;49.40;;;;;;5077085;27;36460;-53
2022/03/05 11:28:48;;;;;;;17.15;10.15;;;11.30;48.90;;;;;;5079462;27;36757;-53
2022/03/05 11:31:18;;;;;;;20.95;11.75;;;11.30;48.30;;;;;;5079997;27;37099;-54
2022/03/05 11:33:48;;;;;;;17.02;10.50;;;11.50;47.90;;;;;;5080251;27;37488;-55
2022/03/05 11:36:27;;;;;;;19.10;10.50;;;11.50;47.10;;;;;;5079188;27;38641;-53
2022/03/05 11:39:11;;;;;;;17.48;11.00;;;11.60;46.40;;;;;;5077623;27;35779;-53
2022/03/05 11:41:54;;;;;;;20.45;11.13;;;12.00;46.00;;;;;;5077292;27;37650;-54
2022/03/05 11:44:23;;;;;;;17.40;10.13;;;12.30;44.80;;;;;;5079180;27;36463;-54
2022/03/05 11:47:11;;;;;;;18.40;11.48;;;12.50;44.70;;;;;;5079151;27;37296;-54
2022/03/05 11:50:06;;;;;;;17.23;11.05;;;12.30;45.20;;;;;;5081359;27;36477;-55
2022/03/05 11:53:05;;;;;;;15.43;9.63;;;11.90;46.10;;;;;;5080295;27;37571;-55
2022/03/05 11:55:41;;;;;;;15.02;9.38;;;11.60;46.70;;;;;;5082142;27;37757;-55
2022/03/05 11:58:35;;;;;;;20.48;10.68;;;11.20;48.50;;;;;;5077609;27;20574;-54
2022/03/05 12:01:35;;;;;;;16.65;10.18;;;10.90;49.80;;;;;;5082176;27;37462;-54
2022/03/05 12:04:18;;;;;;;16.38;10.63;;;10.60;50.80;;;;;;5084189;27;38147;-53
2022/03/05 12:06:50;;;;;;;18.70;10.70;;;10.40;50.70;;;;;;5080540;27;37799;-53
2022/03/05 12:09:45;;;;;;;17.05;9.80;;;10.20;51.20;;;;;;5081076;27;36872;-54
2022/03/05 12:12:16;;;;;;;15.88;9.65;;;10.10;51.90;;;;;;5082018;27;39681;-54
2022/03/05 12:15:08;;;;;;;18.17;10.32;;;10.10;52.20;;;;;;5081659;27;39126;-52
2022/03/05 12:17:39;;;;;;;17.20;10.63;;;10.00;51.70;;;;;;5083306;27;38541;-53
2022/03/05 12:20:08;;;;;;;17.65;10.57;;;9.80;52.30;;;;;;5079087;27;37828;-53
2022/03/05 12:22:37;;;;;;;16.60;9.93;;;9.70;52.40;;;;;;5082773;27;35771;-53
2022/03/05 12:25:05;;;;;;;17.27;10.88;;;9.60;52.80;;;;;;5081112;27;37588;-55
2022/03/05 12:27:36;;;;;;;18.17;11.93;;;9.60;52.50;;;;;;5079269;27;36540;-53
2022/03/05 12:30:04;;;;;;;19.10;10.73;;;9.50;53.30;;;;;;5083541;27;36166;-54
2022/03/05 12:32:34;;;;;;;16.23;9.65;;;9.60;54.00;;;;;;5082671;27;36552;-54
2022/03/05 12:35:07;;;;;;;16.75;10.15;;;9.50;54.20;;;;;;5081636;27;37898;-54
2022/03/05 12:37:35;;;;;;;18.75;10.90;;;9.40;54.10;;;;;;5081484;27;39283;-54
2022/03/05 12:40:05;;;;;;;17.30;10.30;;;9.30;53.90;;;;;;5083249;27;37383;-54
2022/03/05 12:42:41;;;;;;;17.77;10.48;;;9.20;54.20;;;;;;5084797;27;36613;-54
2022/03/05 12:45:13;;;;;;;19.38;10.32;;;9.20;54.90;;;;;;5085931;27;37657;-54
2022/03/05 12:47:40;;;;;;;20.08;10.50;;;9.10;54.90;;;;;;5083952;27;37948;-54
2022/03/05 12:50:30;;;;;;;18.80;11.68;;;9.00;54.70;;;;;;5085505;27;37942;-53
2022/03/05 12:53:06;;;;;;;22.45;11.93;;;9.00;55.50;;;;;;5081821;27;36856;-54
2022/03/05 12:55:38;;;;;;;21.73;12.25;;;9.00;56.10;;;;;;5084107;27;38390;-53
2022/03/05 12:58:11;;;;;;;20.90;11.33;;;8.90;55.80;;;;;;5084523;27;36474;-55